Maersk_kyrenia — VRGM8 — position and weather

sailwx.info

Track history (hours):
 
Tides and Currents Weather Stations Pressure Air Temp Water Temp Dewpoint Dewpoint Depression Visibility Wind Speed Wind Dir Waves Ship Positions

Maersk_kyrenia

Last reported at 2016-May-26 22:00 UTC. Time now 2016-May-29 00:09 UTC.
Position S 06°24' E 076°42'.

Length 300 m; draft 14.2 m.

MMSI: 477733600.

Wind from 170 at 7 knots

Waves 0.5 meters (2 feet), 4 second period

Barometer 1012.3 mb
Air temperature 28.5 ° C
Dewpoint 24.2 ° C
Water temperature 29.9 ° C

Date/timePositionNaut miles runAvg speedWind from/ knotsBaromVisibWave heightAir tempDewpointWater temp
2016-May-26 22:00S 06°24' E 076°42'12420.7 170 / 71012.3 0.528.524.229.9
2016-May-26 16:00S 05°12' E 078°24'24620.5 160 / 101016.410.8 0.528.025.230.0
2016-May-26 04:00S 02°54' E 081°48'   270 / 101015.610.8 0.530.025.830.0
2016-May-22 01:33N 01°55' E 102°20'1715.9
2016-May-22 00:29N 01°48' E 102°36'1716.7
2016-May-21 23:30N 01°41' E 102°51'50 1.1
2016-May-20 01:24N 01°17' E 103°35'0 0.1
2016-May-20 00:33N 01°17' E 103°35'0 0.1
2016-May-19 23:33N 01°17' E 103°34'0 0.1
2016-May-19 22:23N 01°16' E 103°34'0 0.1
2016-May-19 21:33N 01°16' E 103°34'0 0.0
2016-May-19 20:26N 01°16' E 103°34'0 0.0
2016-May-19 18:26N 01°16' E 103°34'0 0.2
2016-May-19 17:27N 01°16' E 103°35'0 0.1
2016-May-19 16:31N 01°16' E 103°35'0 0.1
2016-May-19 15:31N 01°17' E 103°35'0 0.0
2016-May-19 14:17N 01°17' E 103°35'0 0.0
2016-May-19 13:25N 01°17' E 103°35'0 0.0
2016-May-19 12:33N 01°17' E 103°35'0 0.1
2016-May-19 11:32N 01°17' E 103°34'0 0.1
2016-May-19 10:24N 01°17' E 103°34'0 0.1
2016-May-19 07:29N 01°16' E 103°34'0 0.0
2016-May-19 06:30N 01°16' E 103°34'4 2.2
2016-May-19 04:30N 01°12' E 103°36'8 8.1
2016-May-19 03:33N 01°15' E 103°43'2 2.3
2016-May-19 02:28N 01°17' E 103°45'0 0.0
2016-May-19 01:28N 01°17' E 103°45'0 0.0
2016-May-19 00:28N 01°17' E 103°45'0 0.0
2016-May-18 23:31N 01°17' E 103°45'0 0.0
2016-May-18 22:28N 01°17' E 103°45'0 0.0
2016-May-18 21:28N 01°17' E 103°45'0 0.0
2016-May-18 20:28N 01°17' E 103°45'0 0.0
2016-May-18 19:25N 01°17' E 103°45'0 0.0
2016-May-18 18:33N 01°17' E 103°45'0 0.0
2016-May-18 17:33N 01°17' E 103°45'0 0.0
2016-May-18 16:33N 01°17' E 103°45'5 4.7
2016-May-18 15:33N 01°13' E 103°48'6 5.6
2016-May-18 14:33N 01°13' E 103°54'9 8.8
2016-May-18 13:33N 01°16' E 104°02'  
Track history (hours):
 
Tides and Currents Weather Stations Pressure Air Temp Water Temp Dewpoint Dewpoint Depression Visibility Wind Speed Wind Dir Waves Ship Positions

Maersk_kyrenia

Last reported at 2016-May-26 22:00 UTC. Time now 2016-May-29 00:09 UTC.
Position S 06°24' E 076°42'.

Length 300 m; draft 14.2 m.

MMSI: 477733600.

Wind from 170 at 7 knots

Waves 0.5 meters (2 feet), 4 second period

Barometer 1012.3 mb
Air temperature 28.5 ° C
Dewpoint 24.2 ° C
Water temperature 29.9 ° C

Date/timePositionNaut miles runAvg speedWind from/ knotsBaromVisibWave heightAir tempDewpointWater temp
2016-May-26 22:00S 06°24' E 076°42'12420.7 170 / 71012.3 0.528.524.229.9
2016-May-26 16:00S 05°12' E 078°24'24620.5 160 / 101016.410.8 0.528.025.230.0
2016-May-26 04:00S 02°54' E 081°48'   270 / 101015.610.8 0.530.025.830.0
2016-May-22 01:33N 01°55' E 102°20'1715.9
2016-May-22 00:29N 01°48' E 102°36'1716.7
2016-May-21 23:30N 01°41' E 102°51'50 1.1
2016-May-20 01:24N 01°17' E 103°35'0 0.1
2016-May-20 00:33N 01°17' E 103°35'0 0.1
2016-May-19 23:33N 01°17' E 103°34'0 0.1
2016-May-19 22:23N 01°16' E 103°34'0 0.1
2016-May-19 21:33N 01°16' E 103°34'0 0.0
2016-May-19 20:26N 01°16' E 103°34'0 0.0
2016-May-19 18:26N 01°16' E 103°34'0 0.2
2016-May-19 17:27N 01°16' E 103°35'0 0.1
2016-May-19 16:31N 01°16' E 103°35'0 0.1
2016-May-19 15:31N 01°17' E 103°35'0 0.0
2016-May-19 14:17N 01°17' E 103°35'0 0.0
2016-May-19 13:25N 01°17' E 103°35'0 0.0
2016-May-19 12:33N 01°17' E 103°35'0 0.1
2016-May-19 11:32N 01°17' E 103°34'0 0.1
2016-May-19 10:24N 01°17' E 103°34'0 0.1
2016-May-19 07:29N 01°16' E 103°34'0 0.0
2016-May-19 06:30N 01°16' E 103°34'4 2.2
2016-May-19 04:30N 01°12' E 103°36'8 8.1
2016-May-19 03:33N 01°15' E 103°43'2 2.3
2016-May-19 02:28N 01°17' E 103°45'0 0.0
2016-May-19 01:28N 01°17' E 103°45'0 0.0
2016-May-19 00:28N 01°17' E 103°45'0 0.0
2016-May-18 23:31N 01°17' E 103°45'0 0.0
2016-May-18 22:28N 01°17' E 103°45'0 0.0
2016-May-18 21:28N 01°17' E 103°45'0 0.0
2016-May-18 20:28N 01°17' E 103°45'0 0.0
2016-May-18 19:25N 01°17' E 103°45'0 0.0
2016-May-18 18:33N 01°17' E 103°45'0 0.0
2016-May-18 17:33N 01°17' E 103°45'0 0.0
2016-May-18 16:33N 01°17' E 103°45'5 4.7
2016-May-18 15:33N 01°13' E 103°48'6 5.6
2016-May-18 14:33N 01°13' E 103°54'9 8.8
2016-May-18 13:33N 01°16' E 104°02'  

Dump ship's entire track history